• Join FlightAware (Why Join?)
  • Login
  • US Flag 
04:33AM EDT


 

Airport Tracker/Info


-or-


 

Live Flight TrackerFlight Track Log ✈ JUS205 ✈ 16-Aug-2013 ✈ KLRD - KGKY

Flight Track Log - Related Links

Times and Time Zones

All times are in EDT time to prevent confusion due to time zone crossing. See the JUS205 flight status page for this flight to view local times or setup timezone preferences in your user account.

Time Position Orientation Groundspeed Altitude Reporting Facility
EDT Latitude Longitude Course Direction KTS MPH feet Rate Location/Type
07:00AM 28.3514 -99.0225 21° North 380 437 21,100  Level Houston Center
07:01AM 28.4528 -98.9750 22° Northeast 388 447 22,300 1,140 Climbing Houston Center
07:02AM 28.5583 -98.9336 19° North 397 457 23,400 1,140 Climbing Houston Center
07:03AM 28.3104 -99.1235 21° North  Level Estimated
07:03AM 28.6836 -98.8772 22° Northeast 407 468 24,600  Level Houston Center
07:04AM 28.3746 -99.0950 21° North  Level Estimated
07:04AM 28.7925 -98.8353 19° North 411 473 25,700  Level Houston Center
07:05AM 28.4387 -99.0664 21° North  Level Estimated
07:05AM 28.9003 -98.7847 22° Northeast 418 481 26,200  Level Houston Center
07:06AM 28.5029 -99.0378 21° North  Level Estimated
07:06AM 29.0122 -98.7383 20° North 426 490 26,900  Level Houston Center
07:07AM 29.1250 -98.6897 21° North 433 498 27,700 780 Climbing Houston Center
07:08AM 29.2361 -98.6364 23° Northeast 433 498 28,500 720 Climbing Houston Center
07:09AM 29.3522 -98.5978 16° North 433 498 29,200 660 Climbing Houston Center
07:10AM 29.4669 -98.5542 18° North 433 498 29,900 600 Climbing Houston Center
07:11AM 29.5875 -98.5050 20° North 445 512 30,500 600 Climbing Houston Center
07:12AM 29.7078 -98.4681 15° North 444 511 31,200 840 Climbing Houston Center
07:13AM 29.8214 -98.4189 21° North 433 498 32,200 720 Climbing Houston Center
07:14AM 29.9458 -98.3756 17° North 434 499 32,700 600 Climbing Houston Center
07:15AM 30.0617 -98.3336 17° North 435 501 33,500 720 Climbing Houston Center
07:17AM 30.1747 -98.2850 20° North 434 499 34,200 480 Climbing Houston Center
07:18AM 30.2897 -98.2506 15° North 426 490 34,500 360 Climbing Houston Center
07:19AM 30.3900 -98.2100 19° North 434 499 35,000 240 Climbing Houston Center
07:20AM 30.5069 -98.1644 19° North 437 503 35,000  Level Houston Center
07:21AM 30.6261 -98.1267 15° North 437 503 35,000  Level Houston Center
07:22AM 30.7428 -98.0758 21° North 440 506 35,000 -300 Level Houston Center
07:23AM 30.8617 -98.0364 16° North 439 505 34,500 -840 Descending Houston Center
07:24AM 30.9822 -97.9889 19° North 447 514 33,400 -1,140 Descending Houston Center
07:25AM 31.1036 -97.9397 19° North 453 521 32,300 -1,260 Descending Houston Center
07:26AM 31.2294 -97.8981 16° North 459 528 30,900 -1,380 Descending Houston Center
07:27AM 31.3539 -97.8406 22° Northeast 470 541 29,500 -2,040 Descending Houston Center
07:28AM 31.4792 -97.7983 16° North 463 533 26,900 -2,820 Descending Houston Center
07:29AM 31.5958 -97.7611 15° North 436 502 23,900 -3,000 Descending Houston Center
07:30AM 31.7086 -97.7108 21° North 431 496 20,900 -3,300 Descending Houston Center
07:31AM 31.8150 -97.6744 16° North 402 463 17,200 -3,960 Descending Houston Center
07:32AM 31.9133 -97.6378 18° North 373 429 13,000 -3,120 Descending Houston Center
07:33AM 32.0253 -97.5922 19° North 331 381 10,300 -2,220 Descending Fort Worth Center
07:34AM 32.0983 -97.5631 19° North 289 333 8,100 -2,400 Descending Fort Worth Center
07:35AM 32.1736 -97.5311 20° North 277 319 5,600 -1,560 Descending Fort Worth Center
07:36AM 32.2383 -97.5067 18° North 266 306 5,000 -420 Descending Fort Worth Center
07:37AM 32.2947 -97.4747 26° Northeast 232 267 4,800 -600 Descending Fort Worth Center
07:38AM 32.3197 -97.4183 62° Northeast 190 219 3,900 -900 Descending Fort Worth Center
07:39AM 32.3469 -97.3642 59° Northeast 190 219 3,000 -480 Descending Fort Worth Center
07:40AM 32.3658 -97.3225 62° Northeast 163 188 3,000  Level Fort Worth Center
07:41AM 32.3844 -97.2781 64° Northeast 153 176 3,000  Level Fort Worth Center
07:42AM 32.4094 -97.2214 62° Northeast 168 193 3,000  Level Fort Worth Center
07:43AM 32.4281 -97.1747 65° Northeast 173 199 3,000 -420 Level Fort Worth Center
07:44AM 32.4553 -97.1206 59° Northeast 173 199 2,200 -360 Descending Fort Worth Center
07:45AM 32.4947 -97.1031 21° North 159 183 2,300  Climbing Fort Worth Center
07:46AM 32.5428 -97.0856 17° North 152 175 2,200 -300 Descending Fort Worth Center
07:47AM 32.5783 -97.0781 10° North 157 181 1,800 -480 Descending Fort Worth Center
07:48AM 32.6181 -97.0853 351° North 135 155 1,300 -300 Descending Fort Worth Center
07:49AM 32.6556 -97.0878 357° North 127 146 1,200 -120 Descending Fort Worth Center